sensor_id;sensor_type;location;lat;lon;timestamp;pressure;altitude;pressure_sealevel;temperature;humidity
61524;BME280;47393;38.758;-9.164;2022-09-29T00:01:48;100641.06;;;17.06;97.02
61524;BME280;47393;38.758;-9.164;2022-09-29T00:03:49;100638.91;;;17.02;97.09
61524;BME280;47393;38.758;-9.164;2022-09-29T00:05:50;100636.06;;;16.95;95.82
61524;BME280;47393;38.758;-9.164;2022-09-29T00:07:52;100638.72;;;16.95;95.58
61524;BME280;47393;38.758;-9.164;2022-09-29T00:09:53;100634.22;;;16.95;95.46
61524;BME280;47393;38.758;-9.164;2022-09-29T00:11:54;100641.84;;;16.90;95.91
61524;BME280;47393;38.758;-9.164;2022-09-29T00:13:55;100637.22;;;16.92;95.55
61524;BME280;47393;38.758;-9.164;2022-09-29T00:15:57;100632.72;;;16.93;94.97
61524;BME280;47393;38.758;-9.164;2022-09-29T00:17:57;100627.16;;;16.78;95.23
61524;BME280;47393;38.758;-9.164;2022-09-29T00:19:58;100626.28;;;16.69;95.61
61524;BME280;47393;38.758;-9.164;2022-09-29T00:21:58;100625.53;;;16.51;96.33
61524;BME280;47393;38.758;-9.164;2022-09-29T00:23:59;100610.13;;;16.28;97.48
61524;BME280;47393;38.758;-9.164;2022-09-29T00:28:01;100599.13;;;16.23;97.50
61524;BME280;47393;38.758;-9.164;2022-09-29T00:30:01;100596.78;;;16.20;97.77
61524;BME280;47393;38.758;-9.164;2022-09-29T00:32:02;100598.03;;;16.07;98.60
61524;BME280;47393;38.758;-9.164;2022-09-29T00:34:05;100599.38;;;16.12;98.18
61524;BME280;47393;38.758;-9.164;2022-09-29T00:36:08;100596.63;;;15.95;99.00
61524;BME280;47393;38.758;-9.164;2022-09-29T00:38:09;100600.50;;;15.83;99.62
61524;BME280;47393;38.758;-9.164;2022-09-29T00:40:10;100590.88;;;15.64;100.00
61524;BME280;47393;38.758;-9.164;2022-09-29T00:42:11;100582.84;;;15.55;100.00
61524;BME280;47393;38.758;-9.164;2022-09-29T00:46:12;100572.69;;;15.51;100.00
61524;BME280;47393;38.758;-9.164;2022-09-29T00:48:13;100571.91;;;15.58;100.00
61524;BME280;47393;38.758;-9.164;2022-09-29T00:50:17;100581.72;;;15.58;100.00
61524;BME280;47393;38.758;-9.164;2022-09-29T00:52:24;100582.91;;;15.46;100.00
61524;BME280;47393;38.758;-9.164;2022-09-29T00:54:25;100586.41;;;15.46;100.00
61524;BME280;47393;38.758;-9.164;2022-09-29T00:56:26;100581.53;;;15.42;100.00
61524;BME280;47393;38.758;-9.164;2022-09-29T01:00:31;100587.69;;;15.42;100.00
61524;BME280;47393;38.758;-9.164;2022-09-29T01:02:33;100578.88;;;15.42;100.00
61524;BME280;47393;38.758;-9.164;2022-09-29T01:04:35;100577.06;;;15.60;100.00
61524;BME280;47393;38.758;-9.164;2022-09-29T01:06:49;100578.03;;;15.77;100.00
61524;BME280;47393;38.758;-9.164;2022-09-29T01:08:56;100574.28;;;15.80;100.00
61524;BME280;47393;38.758;-9.164;2022-09-29T01:11:01;100575.81;;;15.82;100.00
61524;BME280;47393;38.758;-9.164;2022-09-29T01:13:04;100573.66;;;15.86;100.00
61524;BME280;47393;38.758;-9.164;2022-09-29T01:15:05;100575.00;;;15.82;100.00
61524;BME280;47393;38.758;-9.164;2022-09-29T01:17:09;100571.00;;;15.86;100.00
61524;BME280;47393;38.758;-9.164;2022-09-29T01:19:26;100576.91;;;15.98;100.00
61524;BME280;47393;38.758;-9.164;2022-09-29T01:28:27;100580.06;;;16.27;100.00
61524;BME280;47393;38.758;-9.164;2022-09-29T01:30:55;100581.75;;;16.29;100.00
61524;BME280;47393;38.758;-9.164;2022-09-29T01:35:44;100570.53;;;16.35;100.00
61524;BME280;47393;38.758;-9.164;2022-09-29T01:39:48;100573.13;;;16.26;100.00
61524;BME280;47393;38.758;-9.164;2022-09-29T01:42:01;100573.72;;;16.20;100.00
61524;BME280;47393;38.758;-9.164;2022-09-29T01:44:15;100559.81;;;16.18;100.00
61524;BME280;47393;38.758;-9.164;2022-09-29T01:46:22;100554.97;;;16.14;100.00
61524;BME280;47393;38.758;-9.164;2022-09-29T01:48:28;100545.19;;;16.14;100.00
61524;BME280;47393;38.758;-9.164;2022-09-29T01:50:34;100541.38;;;16.17;100.00
61524;BME280;47393;38.758;-9.164;2022-09-29T01:52:42;100542.31;;;16.07;100.00
61524;BME280;47393;38.758;-9.164;2022-09-29T01:54:47;100547.94;;;16.04;100.00
61524;BME280;47393;38.758;-9.164;2022-09-29T01:56:58;100543.78;;;16.02;100.00
61524;BME280;47393;38.758;-9.164;2022-09-29T01:59:12;100548.97;;;15.85;100.00
61524;BME280;47393;38.758;-9.164;2022-09-29T02:01:14;100552.09;;;15.81;100.00
61524;BME280;47393;38.758;-9.164;2022-09-29T02:03:17;100555.13;;;15.68;100.00
61524;BME280;47393;38.758;-9.164;2022-09-29T02:05:25;100547.75;;;15.62;100.00
61524;BME280;47393;38.758;-9.164;2022-09-29T02:07:32;100552.63;;;15.48;100.00
61524;BME280;47393;38.758;-9.164;2022-09-29T02:09:40;100552.69;;;15.38;100.00
61524;BME280;47393;38.758;-9.164;2022-09-29T02:11:42;100542.47;;;15.44;100.00
61524;BME280;47393;38.758;-9.164;2022-09-29T02:13:53;100543.63;;;15.41;100.00
61524;BME280;47393;38.758;-9.164;2022-09-29T02:15:56;100544.91;;;15.37;100.00
61524;BME280;47393;38.758;-9.164;2022-09-29T02:17:58;100545.75;;;15.37;100.00
61524;BME280;47393;38.758;-9.164;2022-09-29T02:20:02;100550.94;;;15.47;100.00
61524;BME280;47393;38.758;-9.164;2022-09-29T02:24:11;100535.56;;;15.69;100.00
61524;BME280;47393;38.758;-9.164;2022-09-29T02:26:12;100535.03;;;15.83;100.00
61524;BME280;47393;38.758;-9.164;2022-09-29T02:28:13;100535.78;;;15.94;100.00
61524;BME280;47393;38.758;-9.164;2022-09-29T02:30:15;100529.34;;;16.04;100.00
61524;BME280;47393;38.758;-9.164;2022-09-29T02:32:15;100530.56;;;16.10;100.00
61524;BME280;47393;38.758;-9.164;2022-09-29T02:34:17;100529.16;;;16.24;100.00
61524;BME280;47393;38.758;-9.164;2022-09-29T02:41:14;100518.53;;;16.24;100.00
61524;BME280;47393;38.758;-9.164;2022-09-29T02:51:49;100501.22;;;15.85;100.00
61524;BME280;47393;38.758;-9.164;2022-09-29T02:54:15;100494.84;;;15.78;100.00
61524;BME280;47393;38.758;-9.164;2022-09-29T02:58:38;100491.75;;;15.83;100.00
61524;BME280;47393;38.758;-9.164;2022-09-29T03:00:43;100489.56;;;15.78;100.00
61524;BME280;47393;38.758;-9.164;2022-09-29T03:02:44;100496.00;;;15.75;100.00
61524;BME280;47393;38.758;-9.164;2022-09-29T03:04:44;100488.59;;;15.79;100.00
61524;BME280;47393;38.758;-9.164;2022-09-29T03:06:45;100491.16;;;15.89;100.00
61524;BME280;47393;38.758;-9.164;2022-09-29T03:08:46;100492.78;;;15.90;100.00
61524;BME280;47393;38.758;-9.164;2022-09-29T03:10:50;100488.34;;;15.90;100.00
61524;BME280;47393;38.758;-9.164;2022-09-29T03:12:52;100487.16;;;15.93;100.00
61524;BME280;47393;38.758;-9.164;2022-09-29T03:14:56;100482.44;;;16.05;100.00
61524;BME280;47393;38.758;-9.164;2022-09-29T03:16:57;100466.25;;;16.16;99.57
61524;BME280;47393;38.758;-9.164;2022-09-29T03:18:58;100471.75;;;16.23;98.71
61524;BME280;47393;38.758;-9.164;2022-09-29T03:20:58;100473.75;;;16.21;97.93
61524;BME280;47393;38.758;-9.164;2022-09-29T03:22:59;100472.09;;;16.28;96.85
61524;BME280;47393;38.758;-9.164;2022-09-29T03:24:59;100470.47;;;16.35;96.56
61524;BME280;47393;38.758;-9.164;2022-09-29T03:27:00;100475.41;;;16.30;96.26
61524;BME280;47393;38.758;-9.164;2022-09-29T03:29:01;100468.47;;;16.29;96.15
61524;BME280;47393;38.758;-9.164;2022-09-29T03:31:07;100465.44;;;16.24;96.19
61524;BME280;47393;38.758;-9.164;2022-09-29T03:33:11;100473.09;;;16.27;96.07
61524;BME280;47393;38.758;-9.164;2022-09-29T03:35:12;100463.63;;;16.24;96.25
61524;BME280;47393;38.758;-9.164;2022-09-29T03:37:12;100461.28;;;16.21;96.05
61524;BME280;47393;38.758;-9.164;2022-09-29T03:39:13;100463.78;;;16.23;96.34
61524;BME280;47393;38.758;-9.164;2022-09-29T03:41:14;100471.25;;;16.19;96.17
61524;BME280;47393;38.758;-9.164;2022-09-29T03:43:14;100467.56;;;16.12;96.49
61524;BME280;47393;38.758;-9.164;2022-09-29T03:45:15;100468.97;;;15.98;97.03
61524;BME280;47393;38.758;-9.164;2022-09-29T03:47:16;100462.78;;;15.89;97.75
61524;BME280;47393;38.758;-9.164;2022-09-29T03:49:16;100465.31;;;15.73;97.78
61524;BME280;47393;38.758;-9.164;2022-09-29T03:51:17;100462.31;;;15.68;98.45
61524;BME280;47393;38.758;-9.164;2022-09-29T03:53:17;100462.34;;;15.50;99.20
61524;BME280;47393;38.758;-9.164;2022-09-29T03:55:18;100462.66;;;15.29;100.00
61524;BME280;47393;38.758;-9.164;2022-09-29T03:57:18;100470.63;;;15.11;100.00
61524;BME280;47393;38.758;-9.164;2022-09-29T03:59:19;100464.81;;;15.07;100.00
61524;BME280;47393;38.758;-9.164;2022-09-29T04:01:19;100468.59;;;15.22;99.86
61524;BME280;47393;38.758;-9.164;2022-09-29T04:03:20;100467.59;;;15.23;99.43
61524;BME280;47393;38.758;-9.164;2022-09-29T04:05:20;100474.34;;;15.18;99.71
61524;BME280;47393;38.758;-9.164;2022-09-29T04:07:41;100466.16;;;15.11;98.45
61524;BME280;47393;38.758;-9.164;2022-09-29T04:09:42;100470.09;;;15.25;96.62
61524;BME280;47393;38.758;-9.164;2022-09-29T04:11:43;100468.59;;;15.22;95.59
61524;BME280;47393;38.758;-9.164;2022-09-29T04:13:44;100470.03;;;15.17;95.72
61524;BME280;47393;38.758;-9.164;2022-09-29T04:15:45;100478.19;;;15.05;95.84
61524;BME280;47393;38.758;-9.164;2022-09-29T04:17:51;100476.00;;;15.01;96.08
61524;BME280;47393;38.758;-9.164;2022-09-29T04:19:52;100471.69;;;15.00;96.33
61524;BME280;47393;38.758;-9.164;2022-09-29T04:21:52;100466.47;;;15.08;94.55
61524;BME280;47393;38.758;-9.164;2022-09-29T04:23:53;100451.41;;;15.09;94.16
61524;BME280;47393;38.758;-9.164;2022-09-29T04:25:53;100454.44;;;14.96;94.54
61524;BME280;47393;38.758;-9.164;2022-09-29T04:27:54;100452.53;;;14.88;95.42
61524;BME280;47393;38.758;-9.164;2022-09-29T04:29:55;100450.44;;;14.92;94.81
61524;BME280;47393;38.758;-9.164;2022-09-29T04:31:55;100454.44;;;14.96;94.17
61524;BME280;47393;38.758;-9.164;2022-09-29T04:33:56;100448.69;;;15.00;93.75
61524;BME280;47393;38.758;-9.164;2022-09-29T04:35:57;100440.38;;;14.95;93.93
61524;BME280;47393;38.758;-9.164;2022-09-29T04:37:57;100445.97;;;14.92;94.15
61524;BME280;47393;38.758;-9.164;2022-09-29T04:39:59;100445.31;;;14.90;93.96
61524;BME280;47393;38.758;-9.164;2022-09-29T04:42:00;100440.44;;;14.85;94.29
61524;BME280;47393;38.758;-9.164;2022-09-29T04:44:01;100443.84;;;14.96;93.83
61524;BME280;47393;38.758;-9.164;2022-09-29T04:46:04;100444.16;;;15.11;92.75
61524;BME280;47393;38.758;-9.164;2022-09-29T04:48:09;100434.03;;;15.06;92.81
61524;BME280;47393;38.758;-9.164;2022-09-29T04:50:10;100431.97;;;15.00;93.24
61524;BME280;47393;38.758;-9.164;2022-09-29T04:52:11;100435.16;;;15.03;92.99
61524;BME280;47393;38.758;-9.164;2022-09-29T04:54:11;100436.66;;;14.88;93.49
61524;BME280;47393;38.758;-9.164;2022-09-29T04:56:12;100427.66;;;14.81;94.08
61524;BME280;47393;38.758;-9.164;2022-09-29T04:58:13;100439.16;;;14.90;93.89
61524;BME280;47393;38.758;-9.164;2022-09-29T05:00:13;100426.75;;;14.90;93.43
61524;BME280;47393;38.758;-9.164;2022-09-29T05:02:14;100430.47;;;14.79;93.76
61524;BME280;47393;38.758;-9.164;2022-09-29T05:04:15;100425.00;;;14.81;93.41
61524;BME280;47393;38.758;-9.164;2022-09-29T05:06:16;100412.31;;;14.84;93.39
61524;BME280;47393;38.758;-9.164;2022-09-29T05:08:17;100414.34;;;14.91;92.52
61524;BME280;47393;38.758;-9.164;2022-09-29T05:10:18;100411.75;;;14.81;93.01
61524;BME280;47393;38.758;-9.164;2022-09-29T05:12:22;100409.03;;;14.73;93.37
61524;BME280;47393;38.758;-9.164;2022-09-29T05:14:22;100407.00;;;14.84;92.63
61524;BME280;47393;38.758;-9.164;2022-09-29T05:16:24;100403.22;;;14.87;92.70
61524;BME280;47393;38.758;-9.164;2022-09-29T05:18:24;100406.53;;;15.07;91.33
61524;BME280;47393;38.758;-9.164;2022-09-29T05:20:25;100403.63;;;15.18;90.69
61524;BME280;47393;38.758;-9.164;2022-09-29T05:22:25;100408.78;;;15.20;90.73
61524;BME280;47393;38.758;-9.164;2022-09-29T05:24:26;100408.78;;;15.20;90.87
61524;BME280;47393;38.758;-9.164;2022-09-29T05:26:27;100412.78;;;15.24;90.71
61524;BME280;47393;38.758;-9.164;2022-09-29T05:28:27;100407.72;;;15.31;90.29
61524;BME280;47393;38.758;-9.164;2022-09-29T05:30:28;100405.13;;;15.39;89.41
61524;BME280;47393;38.758;-9.164;2022-09-29T05:32:29;100402.50;;;15.47;89.44
61524;BME280;47393;38.758;-9.164;2022-09-29T05:34:32;100403.84;;;15.51;89.38
61524;BME280;47393;38.758;-9.164;2022-09-29T05:36:33;100401.81;;;15.63;88.34
61524;BME280;47393;38.758;-9.164;2022-09-29T05:38:34;100406.31;;;15.71;88.32
61524;BME280;47393;38.758;-9.164;2022-09-29T05:40:35;100414.75;;;15.74;88.46
61524;BME280;47393;38.758;-9.164;2022-09-29T05:42:38;100404.22;;;15.83;88.24
61524;BME280;47393;38.758;-9.164;2022-09-29T05:44:39;100409.03;;;15.79;88.49
61524;BME280;47393;38.758;-9.164;2022-09-29T05:46:40;100413.88;;;15.84;88.44
61524;BME280;47393;38.758;-9.164;2022-09-29T05:48:40;100403.13;;;15.94;88.62
61524;BME280;47393;38.758;-9.164;2022-09-29T05:50:41;100397.84;;;15.94;88.86
61524;BME280;47393;38.758;-9.164;2022-09-29T05:52:42;100399.34;;;15.96;88.94
61524;BME280;47393;38.758;-9.164;2022-09-29T05:54:42;100393.34;;;15.94;89.06
61524;BME280;47393;38.758;-9.164;2022-09-29T05:56:43;100395.84;;;15.96;89.35
61524;BME280;47393;38.758;-9.164;2022-09-29T05:58:43;100396.00;;;15.94;89.75
61524;BME280;47393;38.758;-9.164;2022-09-29T06:00:44;100391.84;;;15.91;89.96
61524;BME280;47393;38.758;-9.164;2022-09-29T06:02:48;100395.19;;;15.94;90.14
61524;BME280;47393;38.758;-9.164;2022-09-29T06:04:49;100399.38;;;15.78;91.30
61524;BME280;47393;38.758;-9.164;2022-09-29T06:06:50;100392.88;;;15.72;91.64
61524;BME280;47393;38.758;-9.164;2022-09-29T06:08:51;100397.81;;;15.67;92.49
61524;BME280;47393;38.758;-9.164;2022-09-29T06:10:52;100402.56;;;15.55;93.26
61524;BME280;47393;38.758;-9.164;2022-09-29T06:12:56;100395.56;;;15.46;93.63
61524;BME280;47393;38.758;-9.164;2022-09-29T06:14:57;100401.13;;;15.35;95.17
61524;BME280;47393;38.758;-9.164;2022-09-29T06:16:57;100407.09;;;15.37;95.38
61524;BME280;47393;38.758;-9.164;2022-09-29T06:18:59;100397.44;;;15.28;96.04
61524;BME280;47393;38.758;-9.164;2022-09-29T06:21:06;100392.13;;;15.28;96.23
61524;BME280;47393;38.758;-9.164;2022-09-29T06:23:07;100389.66;;;15.34;96.46
61524;BME280;47393;38.758;-9.164;2022-09-29T06:25:07;100393.25;;;15.25;97.00
61524;BME280;47393;38.758;-9.164;2022-09-29T06:27:08;100395.53;;;15.20;97.36
61524;BME280;47393;38.758;-9.164;2022-09-29T06:29:11;100404.47;;;15.19;97.92
61524;BME280;47393;38.758;-9.164;2022-09-29T06:31:13;100395.19;;;15.15;98.25
61524;BME280;47393;38.758;-9.164;2022-09-29T06:33:14;100408.09;;;15.18;98.60
61524;BME280;47393;38.758;-9.164;2022-09-29T06:35:15;100401.69;;;15.20;98.74
61524;BME280;47393;38.758;-9.164;2022-09-29T06:37:35;100402.41;;;15.31;98.65
61524;BME280;47393;38.758;-9.164;2022-09-29T06:39:36;100414.69;;;15.32;98.62
61524;BME280;47393;38.758;-9.164;2022-09-29T06:41:37;100418.78;;;15.26;98.86
61524;BME280;47393;38.758;-9.164;2022-09-29T06:43:41;100414.97;;;15.29;99.22
61524;BME280;47393;38.758;-9.164;2022-09-29T06:45:42;100422.91;;;15.29;99.49
61524;BME280;47393;38.758;-9.164;2022-09-29T06:47:43;100408.34;;;15.25;99.93
61524;BME280;47393;38.758;-9.164;2022-09-29T06:49:44;100407.28;;;15.17;100.00
61524;BME280;47393;38.758;-9.164;2022-09-29T06:51:45;100415.41;;;15.16;100.00
61524;BME280;47393;38.758;-9.164;2022-09-29T06:53:46;100414.22;;;15.18;100.00
61524;BME280;47393;38.758;-9.164;2022-09-29T06:55:52;100409.56;;;15.12;100.00
61524;BME280;47393;38.758;-9.164;2022-09-29T06:57:53;100418.03;;;15.16;100.00
61524;BME280;47393;38.758;-9.164;2022-09-29T06:59:55;100421.69;;;15.41;100.00
61524;BME280;47393;38.758;-9.164;2022-09-29T07:01:58;100416.69;;;15.64;98.81
61524;BME280;47393;38.758;-9.164;2022-09-29T07:04:01;100414.75;;;15.74;98.38
61524;BME280;47393;38.758;-9.164;2022-09-29T07:06:20;100417.88;;;15.70;98.48
61524;BME280;47393;38.758;-9.164;2022-09-29T07:08:46;100421.69;;;15.67;98.83
61524;BME280;47393;38.758;-9.164;2022-09-29T07:10:47;100428.50;;;15.70;98.54
61524;BME280;47393;38.758;-9.164;2022-09-29T07:13:06;100417.28;;;15.76;98.79
61524;BME280;47393;38.758;-9.164;2022-09-29T07:15:20;100419.16;;;15.84;98.07
61524;BME280;47393;38.758;-9.164;2022-09-29T07:17:22;100418.38;;;15.91;97.63
61524;BME280;47393;38.758;-9.164;2022-09-29T07:19:27;100416.47;;;16.10;97.11
61524;BME280;47393;38.758;-9.164;2022-09-29T07:21:28;100419.53;;;16.23;95.64
61524;BME280;47393;38.758;-9.164;2022-09-29T07:23:32;100416.75;;;16.41;94.85
61524;BME280;47393;38.758;-9.164;2022-09-29T07:25:39;100422.56;;;16.53;93.97
61524;BME280;47393;38.758;-9.164;2022-09-29T07:27:45;100414.00;;;16.68;93.56
61524;BME280;47393;38.758;-9.164;2022-09-29T07:29:45;100412.81;;;16.70;92.85
61524;BME280;47393;38.758;-9.164;2022-09-29T07:31:47;100410.66;;;16.66;92.93
61524;BME280;47393;38.758;-9.164;2022-09-29T07:33:48;100415.31;;;16.64;92.88
61524;BME280;47393;38.758;-9.164;2022-09-29T07:35:53;100410.84;;;16.72;92.84
61524;BME280;47393;38.758;-9.164;2022-09-29T07:37:54;100414.31;;;16.73;92.54
61524;BME280;47393;38.758;-9.164;2022-09-29T07:39:56;100403.69;;;16.73;92.43
61524;BME280;47393;38.758;-9.164;2022-09-29T07:42:00;100402.69;;;16.66;92.69
61524;BME280;47393;38.758;-9.164;2022-09-29T07:44:01;100404.34;;;16.67;92.42
61524;BME280;47393;38.758;-9.164;2022-09-29T07:46:03;100394.91;;;16.81;91.52
61524;BME280;47393;38.758;-9.164;2022-09-29T07:48:05;100397.09;;;16.93;91.13
61524;BME280;47393;38.758;-9.164;2022-09-29T07:50:06;100392.44;;;16.95;90.25
61524;BME280;47393;38.758;-9.164;2022-09-29T07:52:12;100407.72;;;17.18;89.54
61524;BME280;47393;38.758;-9.164;2022-09-29T07:54:15;100406.38;;;17.30;88.42
61524;BME280;47393;38.758;-9.164;2022-09-29T07:56:19;100413.38;;;17.40;87.68
61524;BME280;47393;38.758;-9.164;2022-09-29T07:58:22;100412.50;;;17.39;87.87
61524;BME280;47393;38.758;-9.164;2022-09-29T08:00:23;100404.91;;;17.28;88.85
61524;BME280;47393;38.758;-9.164;2022-09-29T08:02:28;100415.09;;;17.72;86.91
61524;BME280;47393;38.758;-9.164;2022-09-29T08:04:29;100413.75;;;17.85;85.96
61524;BME280;47393;38.758;-9.164;2022-09-29T08:06:30;100418.44;;;17.74;86.46
61524;BME280;47393;38.758;-9.164;2022-09-29T08:08:33;100419.25;;;17.83;86.33
61524;BME280;47393;38.758;-9.164;2022-09-29T08:10:35;100418.06;;;17.86;86.61
61524;BME280;47393;38.758;-9.164;2022-09-29T08:12:40;100415.94;;;17.73;87.29
61524;BME280;47393;38.758;-9.164;2022-09-29T08:14:40;100410.75;;;17.96;86.38
61524;BME280;47393;38.758;-9.164;2022-09-29T08:16:45;100413.19;;;18.14;86.69
61524;BME280;47393;38.758;-9.164;2022-09-29T08:18:46;100405.13;;;18.22;86.16
61524;BME280;47393;38.758;-9.164;2022-09-29T08:20:47;100403.72;;;18.43;86.00
61524;BME280;47393;38.758;-9.164;2022-09-29T08:22:47;100396.06;;;19.32;82.45
61524;BME280;47393;38.758;-9.164;2022-09-29T08:24:50;100392.13;;;20.03;79.00
61524;BME280;47393;38.758;-9.164;2022-09-29T08:27:12;100400.84;;;21.06;75.36
61524;BME280;47393;38.758;-9.164;2022-09-29T08:29:13;100409.47;;;21.30;73.36
61524;BME280;47393;38.758;-9.164;2022-09-29T08:31:25;100409.13;;;20.68;75.20
61524;BME280;47393;38.758;-9.164;2022-09-29T08:33:31;100419.97;;;21.03;73.57
61524;BME280;47393;38.758;-9.164;2022-09-29T08:35:32;100418.47;;;20.57;75.73
61524;BME280;47393;38.758;-9.164;2022-09-29T08:37:41;100415.13;;;21.14;74.05
61524;BME280;47393;38.758;-9.164;2022-09-29T08:39:51;100411.78;;;21.62;71.89
61524;BME280;47393;38.758;-9.164;2022-09-29T08:42:07;100399.84;;;21.64;71.26
61524;BME280;47393;38.758;-9.164;2022-09-29T08:46:41;100396.81;;;23.18;66.83
61524;BME280;47393;38.758;-9.164;2022-09-29T08:48:46;100400.00;;;24.00;63.63
61524;BME280;47393;38.758;-9.164;2022-09-29T08:51:04;100400.47;;;24.67;60.10
61524;BME280;47393;38.758;-9.164;2022-09-29T08:53:08;100400.47;;;24.67;59.13
61524;BME280;47393;38.758;-9.164;2022-09-29T08:57:23;100412.19;;;23.82;61.58
61524;BME280;47393;38.758;-9.164;2022-09-29T08:59:24;100415.25;;;24.06;61.17
61524;BME280;47393;38.758;-9.164;2022-09-29T09:01:34;100418.44;;;23.49;62.29
61524;BME280;47393;38.758;-9.164;2022-09-29T09:03:44;100423.19;;;22.19;67.14
61524;BME280;47393;38.758;-9.164;2022-09-29T09:06:00;100408.13;;;21.69;69.99
61524;BME280;47393;38.758;-9.164;2022-09-29T09:12:41;100407.84;;;21.92;70.79
61524;BME280;47393;38.758;-9.164;2022-09-29T09:17:48;100406.22;;;20.85;75.78
61524;BME280;47393;38.758;-9.164;2022-09-29T09:22:23;100409.53;;;20.87;76.84
61524;BME280;47393;38.758;-9.164;2022-09-29T09:24:43;100409.41;;;20.73;77.67
61524;BME280;47393;38.758;-9.164;2022-09-29T09:26:57;100409.88;;;20.26;80.38
61524;BME280;47393;38.758;-9.164;2022-09-29T09:29:32;100404.44;;;20.34;80.81
61524;BME280;47393;38.758;-9.164;2022-09-29T09:32:18;100409.22;;;20.60;79.95
61524;BME280;47393;38.758;-9.164;2022-09-29T09:34:43;100409.09;;;20.10;84.61
61524;BME280;47393;38.758;-9.164;2022-09-29T09:36:57;100400.84;;;20.27;83.47
61524;BME280;47393;38.758;-9.164;2022-09-29T09:39:17;100405.16;;;20.64;81.66
61524;BME280;47393;38.758;-9.164;2022-09-29T09:41:32;100389.38;;;20.48;80.77
61524;BME280;47393;38.758;-9.164;2022-09-29T09:43:50;100404.94;;;20.81;80.73
61524;BME280;47393;38.758;-9.164;2022-09-29T09:48:25;100402.22;;;21.24;78.57
61524;BME280;47393;38.758;-9.164;2022-09-29T09:50:40;100403.94;;;21.95;75.80
61524;BME280;47393;38.758;-9.164;2022-09-29T09:53:15;100405.50;;;22.24;73.71
61524;BME280;47393;38.758;-9.164;2022-09-29T09:55:31;100397.41;;;22.73;72.43
61524;BME280;47393;38.758;-9.164;2022-09-29T10:00:15;100398.22;;;23.54;69.07
61524;BME280;47393;38.758;-9.164;2022-09-29T10:02:32;100400.69;;;22.95;70.50
61524;BME280;47393;38.758;-9.164;2022-09-29T10:04:34;100394.75;;;23.26;69.47
61524;BME280;47393;38.758;-9.164;2022-09-29T10:06:46;100383.41;;;23.18;69.75
61524;BME280;47393;38.758;-9.164;2022-09-29T10:09:02;100384.66;;;23.28;68.89
61524;BME280;47393;38.758;-9.164;2022-09-29T10:11:03;100388.94;;;23.09;69.40
61524;BME280;47393;38.758;-9.164;2022-09-29T10:13:14;100394.03;;;22.37;72.61
61524;BME280;47393;38.758;-9.164;2022-09-29T10:15:23;100391.31;;;21.82;75.36
61524;BME280;47393;38.758;-9.164;2022-09-29T10:17:26;100387.84;;;21.53;82.11
61524;BME280;47393;38.758;-9.164;2022-09-29T10:22:10;100374.22;;;20.33;95.09
61524;BME280;47393;38.758;-9.164;2022-09-29T10:24:43;100377.09;;;20.17;99.71
61524;BME280;47393;38.758;-9.164;2022-09-29T10:27:05;100365.91;;;20.07;97.35
61524;BME280;47393;38.758;-9.164;2022-09-29T10:36:34;100347.94;;;20.37;97.12
61524;BME280;47393;38.758;-9.164;2022-09-29T10:38:59;100344.19;;;20.31;99.25
61524;BME280;47393;38.758;-9.164;2022-09-29T10:41:48;100341.34;;;19.96;100.00
61524;BME280;47393;38.758;-9.164;2022-09-29T10:44:42;100337.31;;;19.41;100.00
61524;BME280;47393;38.758;-9.164;2022-09-29T10:47:04;100326.34;;;19.95;100.00
61524;BME280;47393;38.758;-9.164;2022-09-29T10:49:35;100332.50;;;20.32;100.00
61524;BME280;47393;38.758;-9.164;2022-09-29T10:51:37;100322.53;;;20.41;99.85
61524;BME280;47393;38.758;-9.164;2022-09-29T10:53:53;100308.19;;;20.92;99.05
61524;BME280;47393;38.758;-9.164;2022-09-29T10:56:21;100314.25;;;20.57;97.49
61524;BME280;47393;38.758;-9.164;2022-09-29T10:58:32;100314.06;;;20.37;100.00
61524;BME280;47393;38.758;-9.164;2022-09-29T11:00:43;100312.56;;;19.92;100.00
61524;BME280;47393;38.758;-9.164;2022-09-29T11:02:45;100307.09;;;20.00;100.00
61524;BME280;47393;38.758;-9.164;2022-09-29T11:04:59;100305.47;;;20.20;100.00
61524;BME280;47393;38.758;-9.164;2022-09-29T11:07:10;100304.59;;;20.35;100.00
61524;BME280;47393;38.758;-9.164;2022-09-29T11:13:36;100293.03;;;20.28;100.00
61524;BME280;47393;38.758;-9.164;2022-09-29T11:15:51;100285.75;;;20.65;100.00
61524;BME280;47393;38.758;-9.164;2022-09-29T11:18:23;100289.84;;;20.89;100.00
61524;BME280;47393;38.758;-9.164;2022-09-29T11:20:29;100278.91;;;21.95;97.23
61524;BME280;47393;38.758;-9.164;2022-09-29T11:23:01;100279.66;;;22.71;93.46
61524;BME280;47393;38.758;-9.164;2022-09-29T11:32:27;100280.63;;;22.30;94.09
61524;BME280;47393;38.758;-9.164;2022-09-29T11:34:43;100279.97;;;21.53;98.29
61524;BME280;47393;38.758;-9.164;2022-09-29T11:37:16;100268.03;;;20.85;99.88
61524;BME280;47393;38.758;-9.164;2022-09-29T11:46:40;100256.50;;;21.13;100.00
61524;BME280;47393;38.758;-9.164;2022-09-29T11:49:09;100247.84;;;20.33;100.00
61524;BME280;47393;38.758;-9.164;2022-09-29T12:06:08;100234.25;;;19.69;100.00
61524;BME280;47393;38.758;-9.164;2022-09-29T12:08:41;100229.34;;;19.36;100.00
61524;BME280;47393;38.758;-9.164;2022-09-29T12:10:53;100238.63;;;19.41;100.00
61524;BME280;47393;38.758;-9.164;2022-09-29T12:17:40;100236.16;;;19.24;100.00
61524;BME280;47393;38.758;-9.164;2022-09-29T12:20:00;100231.53;;;19.48;100.00
61524;BME280;47393;38.758;-9.164;2022-09-29T12:22:16;100225.00;;;19.35;100.00
61524;BME280;47393;38.758;-9.164;2022-09-29T12:26:57;100219.78;;;19.12;100.00
61524;BME280;47393;38.758;-9.164;2022-09-29T12:29:29;100215.28;;;18.98;100.00
61524;BME280;47393;38.758;-9.164;2022-09-29T12:31:47;100235.31;;;18.94;100.00
61524;BME280;47393;38.758;-9.164;2022-09-29T12:37:22;100228.44;;;19.14;100.00
61524;BME280;47393;38.758;-9.164;2022-09-29T12:40:11;100249.69;;;18.31;100.00